UNKL METAR and TAF | Updated Today

UNKL METAR

Yemelyanovo Airport

Observation time: 12 min. ago

UNKL 251930Z 29002MPS CAVOK 14/09 Q1015 R29/CLRD65 NOSIG RMK QFE736

Need help? Read our tutorial on how to read METARs or read the parsed version below.

Yemelyanovo Airport (UNKL) METAR

  • Weather conditions on Wed, 25 May 2022 19:30:00 +0000 (12 min. ago):
  • Present conditions: Dry
  • Clouds: Clear skies
  • Visibility: Greater than 10 km
  • Wind: 290 degrees at 2 knots
  • Temperature: 14 celsius
  • Dew point: 9 celsius
  • Pressure: 1015 millibars
  • Remarks: QFE736


Useful to know...

UNKL TAF

Yemelyanovo Airport

TAF UNKL 251643Z 2518/2618 30003MPS 6000 NSC TEMPO 2521/2524 0300 FG FM260000 36003G08MPS CAVOK
Observation time: 2:59 hr. ago
Need help? Read our tutorial on how to read TAFs or read the parsed version below.

Parsed version of TAF for Yemelyanovo Airport (UNKL)

  • From 25 May at 18:00 UTC, to day 26 of the month at 18:00 UTC
  • Clouds: No significant clouds are observed
  • Visibility: 6000 meters
  • Wind: 300 degrees at 3
  • Expected to arise temporarily, from 25 May at 21:00 UTC, to day 25 of the month at 24:00 UTC
  • Visibility: 300 meters
  • Other: Fog
  • From day 26 of the month at 00:00 UTC
  • Visibility: Greater than 10 km
  • Wind: 360 degrees at 3

Airports near UNKL